sensor_id;sensor_type;location;lat;lon;timestamp;P1;durP1;ratioP1;P2;durP2;ratioP2
60306;SDS011;46155;52.364;6.580;2024-02-15T04:01:45;77.90;;;71.50;;
60306;SDS011;46155;52.364;6.580;2024-02-15T04:04:12;77.27;;;70.67;;
60306;SDS011;46155;52.364;6.580;2024-02-15T04:06:38;80.33;;;73.23;;
60306;SDS011;46155;52.364;6.580;2024-02-15T04:09:05;76.07;;;69.73;;
60306;SDS011;46155;52.364;6.580;2024-02-15T04:11:32;78.00;;;71.50;;
60306;SDS011;46155;52.364;6.580;2024-02-15T04:13:58;81.93;;;75.43;;
60306;SDS011;46155;52.364;6.580;2024-02-15T04:16:24;76.83;;;70.93;;
60306;SDS011;46155;52.364;6.580;2024-02-15T04:18:50;75.97;;;69.63;;
60306;SDS011;46155;52.364;6.580;2024-02-15T04:21:16;75.93;;;69.27;;
60306;SDS011;46155;52.364;6.580;2024-02-15T04:23:44;74.77;;;69.17;;
60306;SDS011;46155;52.364;6.580;2024-02-15T04:26:10;73.40;;;66.87;;
60306;SDS011;46155;52.364;6.580;2024-02-15T04:28:38;70.20;;;64.43;;
60306;SDS011;46155;52.364;6.580;2024-02-15T04:31:04;69.47;;;64.10;;
60306;SDS011;46155;52.364;6.580;2024-02-15T04:33:33;70.23;;;65.00;;
60306;SDS011;46155;52.364;6.580;2024-02-15T04:35:58;71.50;;;65.27;;
60306;SDS011;46155;52.364;6.580;2024-02-15T04:38:25;67.57;;;62.40;;
60306;SDS011;46155;52.364;6.580;2024-02-15T04:40:51;67.00;;;61.63;;
60306;SDS011;46155;52.364;6.580;2024-02-15T04:43:18;71.07;;;65.00;;
60306;SDS011;46155;52.364;6.580;2024-02-15T04:45:44;70.83;;;64.87;;
60306;SDS011;46155;52.364;6.580;2024-02-15T04:48:10;72.23;;;65.80;;
60306;SDS011;46155;52.364;6.580;2024-02-15T04:50:38;71.53;;;65.87;;
60306;SDS011;46155;52.364;6.580;2024-02-15T04:53:08;70.27;;;64.40;;
60306;SDS011;46155;52.364;6.580;2024-02-15T04:55:33;75.63;;;69.33;;
60306;SDS011;46155;52.364;6.580;2024-02-15T04:58:00;73.70;;;67.67;;
60306;SDS011;46155;52.364;6.580;2024-02-15T05:00:26;71.97;;;65.60;;
60306;SDS011;46155;52.364;6.580;2024-02-15T05:02:51;72.20;;;66.13;;
60306;SDS011;46155;52.364;6.580;2024-02-15T05:05:17;73.00;;;66.83;;
60306;SDS011;46155;52.364;6.580;2024-02-15T05:07:43;69.37;;;63.77;;
60306;SDS011;46155;52.364;6.580;2024-02-15T05:10:08;71.43;;;65.07;;
60306;SDS011;46155;52.364;6.580;2024-02-15T05:12:34;75.83;;;70.00;;
60306;SDS011;46155;52.364;6.580;2024-02-15T05:15:00;69.07;;;62.47;;
60306;SDS011;46155;52.364;6.580;2024-02-15T05:17:26;72.50;;;66.63;;
60306;SDS011;46155;52.364;6.580;2024-02-15T05:19:53;70.23;;;64.47;;
60306;SDS011;46155;52.364;6.580;2024-02-15T05:22:19;72.47;;;66.97;;
60306;SDS011;46155;52.364;6.580;2024-02-15T05:24:44;76.67;;;70.37;;
60306;SDS011;46155;52.364;6.580;2024-02-15T05:27:10;70.90;;;65.43;;
60306;SDS011;46155;52.364;6.580;2024-02-15T05:29:35;69.17;;;63.63;;
60306;SDS011;46155;52.364;6.580;2024-02-15T05:32:01;72.53;;;66.87;;
60306;SDS011;46155;52.364;6.580;2024-02-15T05:34:27;70.17;;;64.30;;
60306;SDS011;46155;52.364;6.580;2024-02-15T05:36:54;70.07;;;64.10;;
60306;SDS011;46155;52.364;6.580;2024-02-15T05:39:20;74.67;;;68.70;;
60306;SDS011;46155;52.364;6.580;2024-02-15T05:41:47;74.93;;;69.37;;
60306;SDS011;46155;52.364;6.580;2024-02-15T05:44:12;73.27;;;67.50;;
60306;SDS011;46155;52.364;6.580;2024-02-15T05:46:43;70.60;;;65.03;;
60306;SDS011;46155;52.364;6.580;2024-02-15T05:49:09;74.00;;;67.57;;
60306;SDS011;46155;52.364;6.580;2024-02-15T05:51:40;72.80;;;66.60;;
60306;SDS011;46155;52.364;6.580;2024-02-15T05:54:05;76.30;;;69.13;;
60306;SDS011;46155;52.364;6.580;2024-02-15T05:56:30;73.90;;;67.47;;
60306;SDS011;46155;52.364;6.580;2024-02-15T05:58:56;74.47;;;67.53;;
60306;SDS011;46155;52.364;6.580;2024-02-15T06:01:22;74.33;;;67.60;;
60306;SDS011;46155;52.364;6.580;2024-02-15T06:03:48;73.73;;;66.53;;
60306;SDS011;46155;52.364;6.580;2024-02-15T06:06:14;73.37;;;67.23;;
60306;SDS011;46155;52.364;6.580;2024-02-15T06:08:39;77.10;;;70.17;;
60306;SDS011;46155;52.364;6.580;2024-02-15T06:11:05;81.80;;;74.33;;
60306;SDS011;46155;52.364;6.580;2024-02-15T06:13:32;79.87;;;72.70;;
60306;SDS011;46155;52.364;6.580;2024-02-15T06:15:57;74.93;;;68.33;;
60306;SDS011;46155;52.364;6.580;2024-02-15T06:18:23;73.60;;;67.17;;
60306;SDS011;46155;52.364;6.580;2024-02-15T06:20:52;78.97;;;71.72;;
60306;SDS011;46155;52.364;6.580;2024-02-15T06:23:18;68.90;;;62.57;;
60306;SDS011;46155;52.364;6.580;2024-02-15T06:25:44;67.07;;;60.93;;
60306;SDS011;46155;52.364;6.580;2024-02-15T06:28:09;62.10;;;56.47;;
60306;SDS011;46155;52.364;6.580;2024-02-15T06:30:44;68.47;;;61.83;;
60306;SDS011;46155;52.364;6.580;2024-02-15T06:33:29;67.50;;;61.27;;
60306;SDS011;46155;52.364;6.580;2024-02-15T06:36:13;71.13;;;63.90;;
60306;SDS011;46155;52.364;6.580;2024-02-15T06:38:56;69.67;;;64.07;;
60306;SDS011;46155;52.364;6.580;2024-02-15T06:41:40;68.87;;;63.33;;
60306;SDS011;46155;52.364;6.580;2024-02-15T06:44:06;63.30;;;59.00;;
60306;SDS011;46155;52.364;6.580;2024-02-15T06:46:31;71.87;;;66.47;;
60306;SDS011;46155;52.364;6.580;2024-02-15T06:48:56;70.53;;;64.83;;
60306;SDS011;46155;52.364;6.580;2024-02-15T06:51:23;68.07;;;62.90;;
60306;SDS011;46155;52.364;6.580;2024-02-15T06:53:49;62.90;;;57.30;;
60306;SDS011;46155;52.364;6.580;2024-02-15T06:56:16;72.03;;;66.97;;
60306;SDS011;46155;52.364;6.580;2024-02-15T06:58:45;69.37;;;64.07;;
60306;SDS011;46155;52.364;6.580;2024-02-15T07:01:11;69.10;;;63.93;;
60306;SDS011;46155;52.364;6.580;2024-02-15T07:03:38;65.10;;;59.37;;
60306;SDS011;46155;52.364;6.580;2024-02-15T07:06:04;64.93;;;59.53;;
60306;SDS011;46155;52.364;6.580;2024-02-15T07:08:30;66.13;;;61.13;;
60306;SDS011;46155;52.364;6.580;2024-02-15T07:10:56;60.97;;;56.27;;
60306;SDS011;46155;52.364;6.580;2024-02-15T07:13:22;59.70;;;55.33;;
60306;SDS011;46155;52.364;6.580;2024-02-15T07:15:47;60.80;;;56.23;;
60306;SDS011;46155;52.364;6.580;2024-02-15T07:18:12;59.43;;;55.23;;
60306;SDS011;46155;52.364;6.580;2024-02-15T07:20:42;60.37;;;56.23;;
60306;SDS011;46155;52.364;6.580;2024-02-15T07:23:07;59.20;;;54.80;;
60306;SDS011;46155;52.364;6.580;2024-02-15T07:25:32;59.20;;;54.83;;
60306;SDS011;46155;52.364;6.580;2024-02-15T07:27:58;57.17;;;52.87;;
60306;SDS011;46155;52.364;6.580;2024-02-15T07:30:23;56.03;;;51.10;;
60306;SDS011;46155;52.364;6.580;2024-02-15T07:32:50;51.50;;;47.27;;
60306;SDS011;46155;52.364;6.580;2024-02-15T07:35:16;53.73;;;49.43;;
60306;SDS011;46155;52.364;6.580;2024-02-15T07:37:55;55.00;;;49.33;;
60306;SDS011;46155;52.364;6.580;2024-02-15T07:40:22;51.80;;;47.37;;
60306;SDS011;46155;52.364;6.580;2024-02-15T07:42:48;55.30;;;51.33;;
60306;SDS011;46155;52.364;6.580;2024-02-15T07:45:14;50.50;;;46.70;;
60306;SDS011;46155;52.364;6.580;2024-02-15T07:47:40;54.37;;;49.90;;
60306;SDS011;46155;52.364;6.580;2024-02-15T07:50:05;54.60;;;50.70;;
60306;SDS011;46155;52.364;6.580;2024-02-15T07:52:30;51.60;;;47.77;;
60306;SDS011;46155;52.364;6.580;2024-02-15T07:54:56;51.87;;;47.70;;
60306;SDS011;46155;52.364;6.580;2024-02-15T07:57:21;53.53;;;49.50;;
60306;SDS011;46155;52.364;6.580;2024-02-15T07:59:47;52.70;;;48.80;;
60306;SDS011;46155;52.364;6.580;2024-02-15T08:02:14;53.30;;;49.23;;
60306;SDS011;46155;52.364;6.580;2024-02-15T08:04:43;51.10;;;47.60;;
60306;SDS011;46155;52.364;6.580;2024-02-15T08:07:09;49.93;;;46.77;;
60306;SDS011;46155;52.364;6.580;2024-02-15T08:09:36;52.93;;;49.30;;
60306;SDS011;46155;52.364;6.580;2024-02-15T08:12:02;53.00;;;48.87;;
60306;SDS011;46155;52.364;6.580;2024-02-15T08:14:28;51.57;;;47.33;;
60306;SDS011;46155;52.364;6.580;2024-02-15T08:16:53;51.67;;;48.13;;
60306;SDS011;46155;52.364;6.580;2024-02-15T08:19:20;54.10;;;50.63;;
60306;SDS011;46155;52.364;6.580;2024-02-15T08:21:47;56.40;;;52.20;;
60306;SDS011;46155;52.364;6.580;2024-02-15T08:24:15;53.17;;;49.77;;
60306;SDS011;46155;52.364;6.580;2024-02-15T08:26:42;54.87;;;51.40;;
60306;SDS011;46155;52.364;6.580;2024-02-15T08:29:08;55.57;;;51.97;;
60306;SDS011;46155;52.364;6.580;2024-02-15T08:31:34;56.40;;;52.73;;
60306;SDS011;46155;52.364;6.580;2024-02-15T08:34:03;54.40;;;51.10;;
60306;SDS011;46155;52.364;6.580;2024-02-15T08:36:34;60.30;;;56.47;;
60306;SDS011;46155;52.364;6.580;2024-02-15T08:39:00;56.67;;;52.13;;
60306;SDS011;46155;52.364;6.580;2024-02-15T08:41:26;54.17;;;50.10;;
60306;SDS011;46155;52.364;6.580;2024-02-15T08:43:52;55.13;;;51.70;;
60306;SDS011;46155;52.364;6.580;2024-02-15T08:46:17;57.93;;;53.83;;
60306;SDS011;46155;52.364;6.580;2024-02-15T08:48:43;55.10;;;51.40;;
60306;SDS011;46155;52.364;6.580;2024-02-15T08:51:09;56.80;;;52.97;;
60306;SDS011;46155;52.364;6.580;2024-02-15T08:53:35;50.60;;;47.30;;
60306;SDS011;46155;52.364;6.580;2024-02-15T08:56:03;55.87;;;52.47;;
60306;SDS011;46155;52.364;6.580;2024-02-15T08:58:29;56.23;;;52.50;;
60306;SDS011;46155;52.364;6.580;2024-02-15T09:00:58;61.93;;;57.33;;
60306;SDS011;46155;52.364;6.580;2024-02-15T09:03:24;54.47;;;50.90;;
60306;SDS011;46155;52.364;6.580;2024-02-15T09:05:49;51.30;;;47.73;;
60306;SDS011;46155;52.364;6.580;2024-02-15T09:08:15;47.40;;;44.20;;
60306;SDS011;46155;52.364;6.580;2024-02-15T09:10:47;46.37;;;43.17;;
60306;SDS011;46155;52.364;6.580;2024-02-15T09:13:14;49.23;;;46.23;;
60306;SDS011;46155;52.364;6.580;2024-02-15T09:15:40;52.13;;;48.27;;
60306;SDS011;46155;52.364;6.580;2024-02-15T09:18:06;47.90;;;44.53;;
60306;SDS011;46155;52.364;6.580;2024-02-15T09:20:34;49.87;;;46.63;;
60306;SDS011;46155;52.364;6.580;2024-02-15T09:23:02;51.83;;;48.60;;
60306;SDS011;46155;52.364;6.580;2024-02-15T09:25:34;51.93;;;48.70;;
60306;SDS011;46155;52.364;6.580;2024-02-15T09:28:01;51.63;;;48.10;;
60306;SDS011;46155;52.364;6.580;2024-02-15T09:30:26;51.90;;;48.43;;
60306;SDS011;46155;52.364;6.580;2024-02-15T09:32:53;48.60;;;45.93;;
60306;SDS011;46155;52.364;6.580;2024-02-15T09:35:18;53.87;;;50.33;;
60306;SDS011;46155;52.364;6.580;2024-02-15T09:37:45;51.43;;;47.83;;
60306;SDS011;46155;52.364;6.580;2024-02-15T09:40:11;52.37;;;49.03;;
60306;SDS011;46155;52.364;6.580;2024-02-15T09:42:38;49.93;;;47.13;;
60306;SDS011;46155;52.364;6.580;2024-02-15T09:45:07;49.20;;;46.20;;
60306;SDS011;46155;52.364;6.580;2024-02-15T09:47:36;50.63;;;47.50;;
60306;SDS011;46155;52.364;6.580;2024-02-15T09:50:05;56.80;;;52.90;;
60306;SDS011;46155;52.364;6.580;2024-02-15T09:52:36;54.00;;;50.60;;
60306;SDS011;46155;52.364;6.580;2024-02-15T09:55:03;52.93;;;49.87;;
60306;SDS011;46155;52.364;6.580;2024-02-15T09:57:29;52.23;;;49.00;;
60306;SDS011;46155;52.364;6.580;2024-02-15T09:59:57;50.50;;;47.77;;
60306;SDS011;46155;52.364;6.580;2024-02-15T10:02:24;51.37;;;48.47;;
60306;SDS011;46155;52.364;6.580;2024-02-15T10:04:51;52.53;;;49.13;;
60306;SDS011;46155;52.364;6.580;2024-02-15T10:07:18;50.43;;;47.50;;
60306;SDS011;46155;52.364;6.580;2024-02-15T10:09:43;49.93;;;46.83;;
60306;SDS011;46155;52.364;6.580;2024-02-15T10:12:09;53.13;;;49.83;;
60306;SDS011;46155;52.364;6.580;2024-02-15T10:14:34;50.53;;;47.50;;
60306;SDS011;46155;52.364;6.580;2024-02-15T10:17:05;49.83;;;46.73;;
60306;SDS011;46155;52.364;6.580;2024-02-15T10:19:34;51.47;;;48.67;;
60306;SDS011;46155;52.364;6.580;2024-02-15T10:22:05;51.97;;;49.23;;
60306;SDS011;46155;52.364;6.580;2024-02-15T10:24:31;50.30;;;47.60;;
60306;SDS011;46155;52.364;6.580;2024-02-15T10:27:00;49.80;;;47.20;;
60306;SDS011;46155;52.364;6.580;2024-02-15T10:29:29;50.50;;;47.60;;
60306;SDS011;46155;52.364;6.580;2024-02-15T10:31:56;52.03;;;49.20;;
60306;SDS011;46155;52.364;6.580;2024-02-15T10:34:23;52.70;;;49.53;;
60306;SDS011;46155;52.364;6.580;2024-02-15T10:36:50;48.50;;;45.93;;
60306;SDS011;46155;52.364;6.580;2024-02-15T10:39:16;50.37;;;47.50;;
60306;SDS011;46155;52.364;6.580;2024-02-15T10:41:47;50.30;;;47.33;;
60306;SDS011;46155;52.364;6.580;2024-02-15T10:44:17;49.77;;;47.10;;
60306;SDS011;46155;52.364;6.580;2024-02-15T10:46:47;51.83;;;49.10;;
60306;SDS011;46155;52.364;6.580;2024-02-15T10:49:16;54.27;;;50.77;;
60306;SDS011;46155;52.364;6.580;2024-02-15T10:51:48;52.40;;;49.07;;
60306;SDS011;46155;52.364;6.580;2024-02-15T10:54:19;54.87;;;51.50;;
60306;SDS011;46155;52.364;6.580;2024-02-15T10:57:10;53.30;;;50.30;;
60306;SDS011;46155;52.364;6.580;2024-02-15T10:59:46;51.27;;;48.43;;
60306;SDS011;46155;52.364;6.580;2024-02-15T11:02:37;52.40;;;49.30;;
60306;SDS011;46155;52.364;6.580;2024-02-15T11:05:06;55.70;;;52.20;;
60306;SDS011;46155;52.364;6.580;2024-02-15T11:07:37;56.17;;;52.47;;
60306;SDS011;46155;52.364;6.580;2024-02-15T11:10:04;53.33;;;49.10;;
60306;SDS011;46155;52.364;6.580;2024-02-15T11:12:33;52.57;;;49.50;;
60306;SDS011;46155;52.364;6.580;2024-02-15T11:14:59;53.73;;;50.53;;
60306;SDS011;46155;52.364;6.580;2024-02-15T11:17:44;54.33;;;50.90;;
60306;SDS011;46155;52.364;6.580;2024-02-15T11:22:57;55.47;;;51.87;;
60306;SDS011;46155;52.364;6.580;2024-02-15T11:25:36;52.20;;;48.73;;
60306;SDS011;46155;52.364;6.580;2024-02-15T11:30:50;51.53;;;48.40;;
60306;SDS011;46155;52.364;6.580;2024-02-15T11:33:31;52.77;;;49.73;;
60306;SDS011;46155;52.364;6.580;2024-02-15T11:38:32;51.47;;;48.50;;
60306;SDS011;46155;52.364;6.580;2024-02-15T11:40:59;54.23;;;50.40;;
60306;SDS011;46155;52.364;6.580;2024-02-15T11:43:59;53.97;;;50.83;;
60306;SDS011;46155;52.364;6.580;2024-02-15T11:46:22;54.60;;;51.23;;
60306;SDS011;46155;52.364;6.580;2024-02-15T11:48:52;54.37;;;50.60;;
60306;SDS011;46155;52.364;6.580;2024-02-15T11:51:25;52.03;;;48.80;;
60306;SDS011;46155;52.364;6.580;2024-02-15T11:53:59;51.47;;;47.93;;
60306;SDS011;46155;52.364;6.580;2024-02-15T11:56:31;55.67;;;52.67;;
60306;SDS011;46155;52.364;6.580;2024-02-15T11:59:02;51.60;;;48.17;;
60306;SDS011;46155;52.364;6.580;2024-02-15T12:01:31;53.43;;;50.23;;
60306;SDS011;46155;52.364;6.580;2024-02-15T12:04:15;50.00;;;46.80;;
60306;SDS011;46155;52.364;6.580;2024-02-15T12:06:59;53.50;;;50.40;;
60306;SDS011;46155;52.364;6.580;2024-02-15T12:09:43;50.33;;;47.43;;
60306;SDS011;46155;52.364;6.580;2024-02-15T12:12:27;53.73;;;50.60;;
60306;SDS011;46155;52.364;6.580;2024-02-15T12:15:11;53.67;;;50.20;;
60306;SDS011;46155;52.364;6.580;2024-02-15T12:17:55;57.07;;;53.50;;
60306;SDS011;46155;52.364;6.580;2024-02-15T12:20:56;55.47;;;52.13;;
60306;SDS011;46155;52.364;6.580;2024-02-15T12:23:22;54.27;;;51.27;;
60306;SDS011;46155;52.364;6.580;2024-02-15T12:25:51;54.23;;;50.70;;
60306;SDS011;46155;52.364;6.580;2024-02-15T12:28:17;58.90;;;55.27;;
60306;SDS011;46155;52.364;6.580;2024-02-15T12:30:43;58.37;;;54.17;;
60306;SDS011;46155;52.364;6.580;2024-02-15T12:33:09;56.63;;;53.10;;
60306;SDS011;46155;52.364;6.580;2024-02-15T12:35:36;57.97;;;54.17;;
60306;SDS011;46155;52.364;6.580;2024-02-15T12:38:02;57.57;;;54.37;;
60306;SDS011;46155;52.364;6.580;2024-02-15T12:40:33;54.77;;;51.07;;
60306;SDS011;46155;52.364;6.580;2024-02-15T12:43:00;58.40;;;54.23;;
60306;SDS011;46155;52.364;6.580;2024-02-15T12:45:26;56.30;;;53.00;;
60306;SDS011;46155;52.364;6.580;2024-02-15T12:47:53;52.07;;;48.97;;
60306;SDS011;46155;52.364;6.580;2024-02-15T12:50:30;52.60;;;49.67;;
60306;SDS011;46155;52.364;6.580;2024-02-15T12:52:56;53.50;;;50.00;;
60306;SDS011;46155;52.364;6.580;2024-02-15T12:55:28;53.60;;;50.50;;
60306;SDS011;46155;52.364;6.580;2024-02-15T12:57:59;53.07;;;49.50;;
60306;SDS011;46155;52.364;6.580;2024-02-15T13:00:28;55.27;;;51.77;;
60306;SDS011;46155;52.364;6.580;2024-02-15T13:02:58;54.97;;;51.50;;
60306;SDS011;46155;52.364;6.580;2024-02-15T13:05:25;55.40;;;51.90;;
60306;SDS011;46155;52.364;6.580;2024-02-15T13:07:52;52.77;;;49.30;;
60306;SDS011;46155;52.364;6.580;2024-02-15T13:10:20;53.87;;;50.30;;
60306;SDS011;46155;52.364;6.580;2024-02-15T13:12:46;49.30;;;46.10;;
60306;SDS011;46155;52.364;6.580;2024-02-15T13:15:12;54.03;;;50.70;;
60306;SDS011;46155;52.364;6.580;2024-02-15T13:17:49;52.20;;;48.93;;
60306;SDS011;46155;52.364;6.580;2024-02-15T13:20:18;52.47;;;49.23;;
60306;SDS011;46155;52.364;6.580;2024-02-15T13:22:45;54.63;;;50.90;;
60306;SDS011;46155;52.364;6.580;2024-02-15T13:25:14;51.10;;;47.37;;
60306;SDS011;46155;52.364;6.580;2024-02-15T13:27:44;52.03;;;48.47;;
60306;SDS011;46155;52.364;6.580;2024-02-15T13:30:11;50.43;;;46.93;;
60306;SDS011;46155;52.364;6.580;2024-02-15T13:32:38;49.30;;;46.13;;
60306;SDS011;46155;52.364;6.580;2024-02-15T13:35:06;51.63;;;48.23;;
60306;SDS011;46155;52.364;6.580;2024-02-15T13:37:39;49.83;;;46.53;;
60306;SDS011;46155;52.364;6.580;2024-02-15T13:40:09;48.93;;;45.60;;
60306;SDS011;46155;52.364;6.580;2024-02-15T13:42:40;48.77;;;45.80;;
60306;SDS011;46155;52.364;6.580;2024-02-15T13:45:14;46.93;;;43.47;;
60306;SDS011;46155;52.364;6.580;2024-02-15T13:47:43;47.07;;;43.83;;
60306;SDS011;46155;52.364;6.580;2024-02-15T13:50:12;49.30;;;46.17;;
60306;SDS011;46155;52.364;6.580;2024-02-15T13:52:41;50.00;;;46.77;;
60306;SDS011;46155;52.364;6.580;2024-02-15T13:55:13;53.43;;;49.97;;
60306;SDS011;46155;52.364;6.580;2024-02-15T13:57:45;48.73;;;45.00;;
60306;SDS011;46155;52.364;6.580;2024-02-15T14:00:14;51.53;;;47.87;;
60306;SDS011;46155;52.364;6.580;2024-02-15T14:02:49;50.07;;;47.27;;
60306;SDS011;46155;52.364;6.580;2024-02-15T14:05:16;49.40;;;46.57;;
60306;SDS011;46155;52.364;6.580;2024-02-15T14:07:45;44.40;;;41.43;;
60306;SDS011;46155;52.364;6.580;2024-02-15T14:10:18;44.60;;;41.27;;
60306;SDS011;46155;52.364;6.580;2024-02-15T14:12:46;44.13;;;41.33;;
60306;SDS011;46155;52.364;6.580;2024-02-15T14:15:12;45.20;;;42.30;;
60306;SDS011;46155;52.364;6.580;2024-02-15T14:17:37;41.83;;;39.13;;
60306;SDS011;46155;52.364;6.580;2024-02-15T14:20:03;44.87;;;41.80;;
60306;SDS011;46155;52.364;6.580;2024-02-15T14:22:33;39.03;;;36.20;;
60306;SDS011;46155;52.364;6.580;2024-02-15T14:24:59;42.40;;;39.47;;
60306;SDS011;46155;52.364;6.580;2024-02-15T14:27:24;40.80;;;38.13;;
60306;SDS011;46155;52.364;6.580;2024-02-15T14:29:50;40.33;;;37.43;;
60306;SDS011;46155;52.364;6.580;2024-02-15T14:32:34;38.77;;;36.33;;
60306;SDS011;46155;52.364;6.580;2024-02-15T14:35:18;41.97;;;39.27;;
60306;SDS011;46155;52.364;6.580;2024-02-15T14:37:45;44.07;;;40.70;;
60306;SDS011;46155;52.364;6.580;2024-02-15T14:40:11;44.30;;;41.90;;
60306;SDS011;46155;52.364;6.580;2024-02-15T14:42:39;39.83;;;37.27;;
60306;SDS011;46155;52.364;6.580;2024-02-15T14:45:06;41.77;;;38.93;;
60306;SDS011;46155;52.364;6.580;2024-02-15T14:47:33;44.03;;;40.67;;
60306;SDS011;46155;52.364;6.580;2024-02-15T14:49:58;41.23;;;38.43;;
60306;SDS011;46155;52.364;6.580;2024-02-15T14:52:24;39.30;;;36.67;;
60306;SDS011;46155;52.364;6.580;2024-02-15T14:54:49;41.30;;;38.63;;
60306;SDS011;46155;52.364;6.580;2024-02-15T14:57:15;41.17;;;38.70;;
60306;SDS011;46155;52.364;6.580;2024-02-15T14:59:40;39.13;;;36.33;;
60306;SDS011;46155;52.364;6.580;2024-02-15T15:02:05;39.57;;;36.70;;
60306;SDS011;46155;52.364;6.580;2024-02-15T15:04:34;39.07;;;36.77;;
60306;SDS011;46155;52.364;6.580;2024-02-15T15:07:12;39.10;;;36.70;;
60306;SDS011;46155;52.364;6.580;2024-02-15T15:09:56;38.20;;;35.50;;
60306;SDS011;46155;52.364;6.580;2024-02-15T15:12:40;36.53;;;33.63;;
60306;SDS011;46155;52.364;6.580;2024-02-15T15:15:10;35.40;;;32.97;;
60306;SDS011;46155;52.364;6.580;2024-02-15T15:17:38;35.13;;;32.57;;
60306;SDS011;46155;52.364;6.580;2024-02-15T15:20:04;35.33;;;33.10;;
60306;SDS011;46155;52.364;6.580;2024-02-15T15:22:33;34.57;;;32.03;;
60306;SDS011;46155;52.364;6.580;2024-02-15T15:24:59;33.17;;;30.47;;
60306;SDS011;46155;52.364;6.580;2024-02-15T15:27:26;33.07;;;31.07;;
60306;SDS011;46155;52.364;6.580;2024-02-15T15:29:52;35.60;;;33.35;;
60306;SDS011;46155;52.364;6.580;2024-02-15T15:32:17;31.43;;;29.27;;
60306;SDS011;46155;52.364;6.580;2024-02-15T15:34:42;28.53;;;26.30;;
60306;SDS011;46155;52.364;6.580;2024-02-15T15:37:08;29.80;;;27.60;;
60306;SDS011;46155;52.364;6.580;2024-02-15T15:39:33;29.57;;;27.17;;
60306;SDS011;46155;52.364;6.580;2024-02-15T15:42:01;29.87;;;28.07;;
60306;SDS011;46155;52.364;6.580;2024-02-15T15:44:27;32.27;;;30.27;;
60306;SDS011;46155;52.364;6.580;2024-02-15T15:46:52;32.20;;;29.93;;
60306;SDS011;46155;52.364;6.580;2024-02-15T15:49:18;32.43;;;30.23;;
60306;SDS011;46155;52.364;6.580;2024-02-15T15:51:43;30.47;;;28.77;;
60306;SDS011;46155;52.364;6.580;2024-02-15T15:54:09;28.63;;;26.90;;
60306;SDS011;46155;52.364;6.580;2024-02-15T15:56:34;32.13;;;29.83;;
60306;SDS011;46155;52.364;6.580;2024-02-15T15:58:59;32.83;;;30.77;;
60306;SDS011;46155;52.364;6.580;2024-02-15T16:01:25;31.20;;;28.70;;
60306;SDS011;46155;52.364;6.580;2024-02-15T16:03:50;30.97;;;28.33;;
60306;SDS011;46155;52.364;6.580;2024-02-15T16:06:16;33.30;;;30.40;;
60306;SDS011;46155;52.364;6.580;2024-02-15T16:08:42;29.47;;;27.37;;
60306;SDS011;46155;52.364;6.580;2024-02-15T16:11:07;31.77;;;29.37;;
60306;SDS011;46155;52.364;6.580;2024-02-15T16:13:33;29.57;;;27.40;;
60306;SDS011;46155;52.364;6.580;2024-02-15T16:15:59;30.67;;;28.60;;
60306;SDS011;46155;52.364;6.580;2024-02-15T16:18:25;31.20;;;28.13;;
60306;SDS011;46155;52.364;6.580;2024-02-15T16:20:50;29.33;;;27.03;;
60306;SDS011;46155;52.364;6.580;2024-02-15T16:23:16;30.47;;;28.27;;
60306;SDS011;46155;52.364;6.580;2024-02-15T16:25:42;32.27;;;29.90;;
60306;SDS011;46155;52.364;6.580;2024-02-15T16:28:08;30.60;;;27.97;;
60306;SDS011;46155;52.364;6.580;2024-02-15T16:30:34;31.70;;;29.53;;
60306;SDS011;46155;52.364;6.580;2024-02-15T16:33:00;30.57;;;27.57;;
60306;SDS011;46155;52.364;6.580;2024-02-15T16:35:26;31.27;;;28.77;;
60306;SDS011;46155;52.364;6.580;2024-02-15T16:37:51;34.93;;;32.27;;
60306;SDS011;46155;52.364;6.580;2024-02-15T16:40:17;31.07;;;28.97;;
60306;SDS011;46155;52.364;6.580;2024-02-15T16:42:43;33.43;;;30.87;;
60306;SDS011;46155;52.364;6.580;2024-02-15T16:45:12;34.73;;;32.30;;
60306;SDS011;46155;52.364;6.580;2024-02-15T16:47:38;35.10;;;31.97;;
60306;SDS011;46155;52.364;6.580;2024-02-15T16:50:05;31.00;;;28.73;;
60306;SDS011;46155;52.364;6.580;2024-02-15T16:52:35;29.70;;;27.40;;
60306;SDS011;46155;52.364;6.580;2024-02-15T16:55:05;30.07;;;27.97;;
60306;SDS011;46155;52.364;6.580;2024-02-15T16:57:31;33.90;;;30.90;;
60306;SDS011;46155;52.364;6.580;2024-02-15T16:59:57;33.27;;;30.87;;
60306;SDS011;46155;52.364;6.580;2024-02-15T17:02:22;33.87;;;31.13;;
60306;SDS011;46155;52.364;6.580;2024-02-15T17:04:48;35.60;;;32.83;;
60306;SDS011;46155;52.364;6.580;2024-02-15T17:07:13;35.03;;;31.97;;
60306;SDS011;46155;52.364;6.580;2024-02-15T17:09:38;32.10;;;29.87;;
60306;SDS011;46155;52.364;6.580;2024-02-15T17:12:04;32.67;;;30.50;;
60306;SDS011;46155;52.364;6.580;2024-02-15T17:14:31;36.67;;;33.67;;
60306;SDS011;46155;52.364;6.580;2024-02-15T17:16:57;34.67;;;31.80;;
60306;SDS011;46155;52.364;6.580;2024-02-15T17:19:22;36.33;;;33.97;;
60306;SDS011;46155;52.364;6.580;2024-02-15T17:21:47;37.47;;;34.87;;
60306;SDS011;46155;52.364;6.580;2024-02-15T17:24:14;33.40;;;30.83;;
60306;SDS011;46155;52.364;6.580;2024-02-15T17:26:42;34.43;;;32.00;;
60306;SDS011;46155;52.364;6.580;2024-02-15T17:29:09;33.97;;;31.73;;
60306;SDS011;46155;52.364;6.580;2024-02-15T17:31:36;34.73;;;32.10;;
60306;SDS011;46155;52.364;6.580;2024-02-15T17:34:02;31.53;;;29.23;;
60306;SDS011;46155;52.364;6.580;2024-02-15T17:36:27;32.77;;;29.60;;
60306;SDS011;46155;52.364;6.580;2024-02-15T17:38:53;31.63;;;28.90;;
60306;SDS011;46155;52.364;6.580;2024-02-15T17:41:18;33.87;;;29.70;;
60306;SDS011;46155;52.364;6.580;2024-02-15T17:43:44;33.17;;;30.57;;
60306;SDS011;46155;52.364;6.580;2024-02-15T17:46:09;33.17;;;30.50;;
60306;SDS011;46155;52.364;6.580;2024-02-15T17:48:35;30.60;;;28.37;;
60306;SDS011;46155;52.364;6.580;2024-02-15T17:51:00;30.60;;;28.07;;
60306;SDS011;46155;52.364;6.580;2024-02-15T17:53:25;31.40;;;28.53;;
60306;SDS011;46155;52.364;6.580;2024-02-15T17:55:51;30.27;;;27.80;;
60306;SDS011;46155;52.364;6.580;2024-02-15T17:58:18;30.90;;;28.60;;
60306;SDS011;46155;52.364;6.580;2024-02-15T18:00:44;30.50;;;28.13;;
60306;SDS011;46155;52.364;6.580;2024-02-15T18:03:10;29.57;;;27.50;;
60306;SDS011;46155;52.364;6.580;2024-02-15T18:05:36;30.67;;;28.40;;
60306;SDS011;46155;52.364;6.580;2024-02-15T18:08:02;29.63;;;27.53;;
60306;SDS011;46155;52.364;6.580;2024-02-15T18:10:28;29.17;;;26.80;;
60306;SDS011;46155;52.364;6.580;2024-02-15T18:12:53;29.70;;;27.40;;
60306;SDS011;46155;52.364;6.580;2024-02-15T18:15:19;30.77;;;28.07;;
60306;SDS011;46155;52.364;6.580;2024-02-15T18:17:54;31.43;;;28.63;;
60306;SDS011;46155;52.364;6.580;2024-02-15T18:20:22;30.17;;;27.63;;
60306;SDS011;46155;52.364;6.580;2024-02-15T18:22:48;31.00;;;28.67;;
60306;SDS011;46155;52.364;6.580;2024-02-15T18:25:15;30.47;;;28.37;;
60306;SDS011;46155;52.364;6.580;2024-02-15T18:27:40;28.03;;;25.70;;
60306;SDS011;46155;52.364;6.580;2024-02-15T18:30:07;28.60;;;26.43;;
60306;SDS011;46155;52.364;6.580;2024-02-15T18:32:36;28.10;;;26.00;;
60306;SDS011;46155;52.364;6.580;2024-02-15T18:35:12;30.80;;;27.83;;